Estación de Lluta Medio

Ultimos registro cada 15 minutos 51
Estación Fecha / Hora Temperatura Humedad Lluvia Velocidad Dirección Radiación Presion
51 Lluta Medio 04-09-2026 12:30 21,7 55,2 0 3,2 313 772,9 955
50 Lluta Medio 04-09-2026 12:15 21,2 54,8 0 2,4 298 764,4 955
49 Lluta Medio 04-09-2026 12:00 21 56,5 0 2,9 308 751,8 955
48 Lluta Medio 04-09-2026 11:45 20,5 57,9 0 2,5 313 734,9 955
47 Lluta Medio 04-09-2026 11:30 20 59,3 0 2,5 296 720,7 955
46 Lluta Medio 04-09-2026 11:15 19,3 61 0 2,2 292 654,4 955
45 Lluta Medio 04-09-2026 11:00 18,7 62,8 0 1,9 286 565,3 955
44 Lluta Medio 04-09-2026 10:45 18,4 64,4 0 2,2 282 529,1 956
43 Lluta Medio 04-09-2026 10:30 18,1 64 0 2,3 282 616,2 956
42 Lluta Medio 04-09-2026 10:15 17,5 67,1 0 1,7 301 540,3 956
41 Lluta Medio 04-09-2026 10:00 17,2 71 0 1,8 305 529,8 956
40 Lluta Medio 04-09-2026 09:45 16,8 71,1 0 2,1 299 539,5 956
39 Lluta Medio 04-09-2026 09:30 16,2 73,5 0 2,2 294 410,2 956
38 Lluta Medio 04-09-2026 09:15 15,7 73,6 0 2,4 280 354,7 956
37 Lluta Medio 04-09-2026 09:00 15,4 76,4 0 2,7 278 331,6 956
36 Lluta Medio 04-09-2026 08:45 15 78,4 0 2,1 297 316,6 956
35 Lluta Medio 04-09-2026 08:30 14,7 78,9 0 1,8 315 256,6 956
34 Lluta Medio 04-09-2026 08:15 14,5 79,9 0 0,5 227 236 956
33 Lluta Medio 04-09-2026 08:00 14,1 78,3 0 0 0 170,3 955
32 Lluta Medio 04-09-2026 07:45 13,4 81,4 0 0 0 118 955
31 Lluta Medio 04-09-2026 07:30 12,8 84,2 0 0 0 46,5 955
30 Lluta Medio 04-09-2026 07:15 12,9 85 0 0 0 17,6 955
29 Lluta Medio 04-09-2026 07:00 13,1 84,2 0 0 0 7,1 955
28 Lluta Medio 04-09-2026 06:45 13,4 84,4 0 0,3 116 1,1 955
27 Lluta Medio 04-09-2026 06:30 13,6 84,2 0 0,3 100 0,2 955
26 Lluta Medio 04-09-2026 06:15 13,7 83,3 0 1 101 0,2 955
25 Lluta Medio 04-09-2026 06:00 13,7 85,2 0 0,2 116 0,2 955
24 Lluta Medio 04-09-2026 05:45 13,8 86,3 0 0 115 0,2 955
23 Lluta Medio 04-09-2026 05:30 13,9 86,2 0 0,1 124 0,2 955
22 Lluta Medio 04-09-2026 05:15 14 85,6 0 1,2 116 0,1 956
21 Lluta Medio 04-09-2026 05:00 14 86,4 0 0,1 120 0,2 956
20 Lluta Medio 04-09-2026 04:45 14,1 86,8 0 0 0 0,2 956
19 Lluta Medio 04-09-2026 04:30 14,1 87,1 0 0 0 0,2 956
18 Lluta Medio 04-09-2026 04:15 14,1 87,2 0 0 0 0,2 956
17 Lluta Medio 04-09-2026 04:00 14 87,2 0 0 0 0,2 956
16 Lluta Medio 04-09-2026 03:45 14 87,1 0 0,2 204 0,2 956
15 Lluta Medio 04-09-2026 03:30 14,1 87,1 0 0,2 203 0,2 956
14 Lluta Medio 04-09-2026 03:15 14,1 87,3 0 0 0 0,2 956
13 Lluta Medio 04-09-2026 03:00 14 86,5 0 0 0 0,2 956
12 Lluta Medio 04-09-2026 02:45 14 86,9 0 0 141 0,2 956
11 Lluta Medio 04-09-2026 02:30 14,1 87,5 0 0 0 0,2 956
10 Lluta Medio 04-09-2026 02:15 14,2 87,5 0 0 0 0,2 956
9 Lluta Medio 04-09-2026 02:00 14,1 87,5 0 0,1 201 0,2 956
8 Lluta Medio 04-09-2026 01:45 14,1 87,4 0 0 0 0,2 956
7 Lluta Medio 04-09-2026 01:30 14,2 87,2 0 0,1 0 0,2 956
6 Lluta Medio 04-09-2026 01:15 14,2 86,9 0 0 0 0,2 956
5 Lluta Medio 04-09-2026 01:00 14,3 86,5 0 0 0 0,1 956
4 Lluta Medio 04-09-2026 00:45 14,4 86 0 0 0 0,2 957
3 Lluta Medio 04-09-2026 00:30 14,5 85,2 0 0,3 46 0,1 957
2 Lluta Medio 04-09-2026 00:15 14,5 85,4 0 0 0 0,2 957
1 Lluta Medio 04-09-2026 00:00 14,6 85,8 0 0 0 0,1 957